createdAt,value
2019-02-16T00:00:04.637Z,9.68
2019-02-16T00:02:32.977Z,10.63
2019-02-16T00:05:02.157Z,10.10
2019-02-16T00:07:32.922Z,9.52
2019-02-16T00:10:00.965Z,10.68
2019-02-16T00:12:30.499Z,10.23
2019-02-16T00:14:59.360Z,9.52
2019-02-16T00:17:27.491Z,9.27
2019-02-16T00:19:55.654Z,9.45
2019-02-16T00:22:24.002Z,9.02
2019-02-16T00:24:52.933Z,9.48
2019-02-16T00:27:22.471Z,9.27
2019-02-16T00:29:53.636Z,8.70
2019-02-16T00:32:21.272Z,8.50
2019-02-16T00:34:50.058Z,9.15
2019-02-16T00:37:22.300Z,9.68
2019-02-16T00:39:50.339Z,10.35
2019-02-16T00:42:20.360Z,9.32
2019-02-16T00:44:50.029Z,9.40
2019-02-16T00:47:18.834Z,7.25
2019-02-16T00:49:46.978Z,9.18
2019-02-16T00:52:16.171Z,8.18
2019-02-16T00:54:46.150Z,8.52
2019-02-16T00:57:14.786Z,8.65
2019-02-16T00:59:44.037Z,9.23
2019-02-16T01:02:12.219Z,9.20
2019-02-16T01:04:40.229Z,9.27
2019-02-16T01:07:08.823Z,9.27
2019-02-16T01:09:36.301Z,9.68
2019-02-16T01:12:04.653Z,10.23
2019-02-16T01:14:33.506Z,8.93
2019-02-16T01:17:01.509Z,9.60
2019-02-16T01:19:31.696Z,9.10
2019-02-16T01:22:01.711Z,9.23
2019-02-16T01:24:30.012Z,8.77
2019-02-16T01:26:58.896Z,8.05
2019-02-16T01:29:26.793Z,7.85
2019-02-16T01:31:55.860Z,8.05
2019-02-16T01:34:26.225Z,8.02
2019-02-16T01:36:54.356Z,7.97
2019-02-16T01:39:22.795Z,8.38
2019-02-16T01:41:52.928Z,7.32
2019-02-16T01:44:22.292Z,7.72
2019-02-16T01:46:52.916Z,8.02
2019-02-16T01:49:20.629Z,8.68
2019-02-16T01:51:49.123Z,7.30
2019-02-16T01:54:18.499Z,8.05
2019-02-16T01:56:48.366Z,8.32
2019-02-16T01:59:16.534Z,8.60
2019-02-16T02:01:44.514Z,8.23
2019-02-16T02:04:13.025Z,8.20
2019-02-16T02:06:41.655Z,9.32
2019-02-16T02:09:12.330Z,7.90
2019-02-16T02:11:39.577Z,7.28
2019-02-16T02:14:08.711Z,8.07
2019-02-16T02:16:36.822Z,8.77
2019-02-16T02:19:06.564Z,7.93
2019-02-16T02:21:41.089Z,8.52
2019-02-16T02:24:06.759Z,8.48
2019-02-16T02:26:38.325Z,7.57
2019-02-16T02:29:08.924Z,8.38
2019-02-16T02:31:39.875Z,8.30
2019-02-16T02:34:08.361Z,8.15
2019-02-16T02:36:36.609Z,7.87
2019-02-16T02:39:05.822Z,8.63
2019-02-16T02:41:34.471Z,7.95
2019-02-16T02:44:03.410Z,8.02
2019-02-16T02:46:32.626Z,8.15
2019-02-16T02:49:01.845Z,8.45
2019-02-16T02:51:33.891Z,8.30
2019-02-16T02:54:02.106Z,8.40
2019-02-16T02:56:30.907Z,8.40
2019-02-16T02:58:59.147Z,7.85
2019-02-16T03:01:28.901Z,8.07
2019-02-16T03:03:56.927Z,8.07
2019-02-16T03:06:25.929Z,8.18
2019-02-16T03:08:54.049Z,8.43
2019-02-16T03:11:23.411Z,8.13
2019-02-16T03:13:52.227Z,9.20
2019-02-16T03:16:20.455Z,8.15
2019-02-16T03:18:49.926Z,7.28
2019-02-16T03:21:18.931Z,7.82
2019-02-16T03:23:47.415Z,7.57
2019-02-16T03:26:26.844Z,6.55
2019-02-16T03:29:07.160Z,7.03
2019-02-16T03:32:14.730Z,7.82
2019-02-16T03:34:55.405Z,7.20
2019-02-16T03:37:36.604Z,8.35
2019-02-16T03:40:04.858Z,7.80
2019-02-16T03:42:32.936Z,8.18
2019-02-16T03:45:02.027Z,7.60
2019-02-16T03:47:30.560Z,8.55
2019-02-16T03:50:02.539Z,7.20
2019-02-16T03:52:30.717Z,7.45
2019-02-16T03:54:59.405Z,7.43
2019-02-16T03:57:29.688Z,8.32
2019-02-16T03:59:59.696Z,8.52
2019-02-16T04:02:28.419Z,8.20
2019-02-16T04:04:57.465Z,8.40
2019-02-16T04:07:30.010Z,8.15
2019-02-16T04:09:58.280Z,8.02
2019-02-16T04:12:27.039Z,7.28
2019-02-16T04:14:55.683Z,8.27
2019-02-16T04:17:24.531Z,7.57
2019-02-16T04:19:54.071Z,7.95
2019-02-16T04:22:24.522Z,7.82
2019-02-16T04:24:50.107Z,8.15
2019-02-16T04:27:18.625Z,7.95
2019-02-16T04:29:47.358Z,8.15
2019-02-16T04:32:16.134Z,8.15
2019-02-16T04:34:43.969Z,8.13
2019-02-16T04:37:11.509Z,8.68
2019-02-16T04:39:40.151Z,7.87
2019-02-16T04:42:07.711Z,8.38
2019-02-16T04:44:35.858Z,7.70
2019-02-16T04:47:03.993Z,8.25
2019-02-16T04:49:34.295Z,7.70
2019-02-16T04:52:02.886Z,7.90
2019-02-16T04:54:30.875Z,8.60
2019-02-16T04:56:59.203Z,7.75
2019-02-16T04:59:28.996Z,6.95
2019-02-16T05:01:58.886Z,7.65
2019-02-16T05:04:30.356Z,7.97
2019-02-16T05:06:58.934Z,7.83
2019-02-16T05:09:27.333Z,8.13
2019-02-16T05:11:55.431Z,7.97
2019-02-16T05:14:25.434Z,8.07
2019-02-16T05:16:53.940Z,8.40
2019-02-16T05:19:22.681Z,8.10
2019-02-16T05:21:51.118Z,8.73
2019-02-16T05:24:19.709Z,8.68
2019-02-16T05:26:47.396Z,8.27
2019-02-16T05:29:16.205Z,8.77
2019-02-16T05:31:45.207Z,8.57
2019-02-16T05:34:13.976Z,8.60
2019-02-16T05:36:46.862Z,8.93
2019-02-16T05:39:16.612Z,11.20
2019-02-16T05:41:44.678Z,9.30
2019-02-16T05:44:13.183Z,9.73
2019-02-16T05:46:41.726Z,9.80
2019-02-16T05:49:10.184Z,8.10
2019-02-16T05:51:40.851Z,9.27
2019-02-16T05:54:09.111Z,9.60
2019-02-16T05:56:37.836Z,8.83
2019-02-16T05:59:08.145Z,8.47
2019-02-16T06:01:35.284Z,9.60
2019-02-16T06:04:04.463Z,8.43
2019-02-16T06:06:34.663Z,10.82
2019-02-16T06:09:04.122Z,9.43
2019-02-16T06:11:32.655Z,9.25
2019-02-16T06:14:01.259Z,8.85
2019-02-16T06:16:29.417Z,9.35
2019-02-16T06:18:57.272Z,8.55
2019-02-16T06:21:25.366Z,8.10
2019-02-16T06:23:54.933Z,9.40
2019-02-16T06:26:24.694Z,8.87
2019-02-16T06:28:54.090Z,9.23
2019-02-16T06:31:22.044Z,9.43
2019-02-16T06:33:52.124Z,8.73
2019-02-16T06:36:27.877Z,8.77
2019-02-16T06:38:56.261Z,9.03
2019-02-16T06:41:24.648Z,8.68
2019-02-16T06:43:54.456Z,9.27
2019-02-16T06:46:22.831Z,8.50
2019-02-16T06:48:52.653Z,7.95
2019-02-16T06:51:22.164Z,8.67
2019-02-16T06:53:51.821Z,8.90
2019-02-16T06:56:39.025Z,9.17
2019-02-16T06:59:07.482Z,8.93
2019-02-16T07:01:36.111Z,9.57
2019-02-16T07:04:05.304Z,9.07
2019-02-16T07:06:33.359Z,9.63
2019-02-16T07:09:01.612Z,10.83
2019-02-16T07:11:30.235Z,11.90
2019-02-16T07:13:59.226Z,10.47
2019-02-16T07:16:45.544Z,10.70
2019-02-16T07:19:20.324Z,9.50
2019-02-16T07:21:49.721Z,9.43
2019-02-16T07:24:18.165Z,8.70
2019-02-16T07:26:47.091Z,8.47
2019-02-16T07:29:16.076Z,8.75
2019-02-16T07:31:44.218Z,8.70
2019-02-16T07:34:15.279Z,8.25
2019-02-16T07:36:43.431Z,8.95
2019-02-16T07:39:11.246Z,8.40
2019-02-16T07:41:39.242Z,9.63
2019-02-16T07:44:20.075Z,9.60
2019-02-16T07:47:07.310Z,8.95
2019-02-16T07:49:57.524Z,9.63
2019-02-16T07:52:42.845Z,9.07
2019-02-16T07:55:20.753Z,9.88
2019-02-16T07:58:00.732Z,9.18
2019-02-16T08:00:58.038Z,10.77
2019-02-16T08:03:35.451Z,9.57
2019-02-16T08:06:15.181Z,9.82
2019-02-16T08:08:56.617Z,9.30
2019-02-16T08:11:43.312Z,9.68
2019-02-16T08:14:27.442Z,9.43
2019-02-16T08:17:19.499Z,9.75
2019-02-16T08:20:24.552Z,9.82
2019-02-16T08:23:22.340Z,10.15
2019-02-16T08:26:08.017Z,10.60
2019-02-16T08:28:47.324Z,9.90
2019-02-16T08:31:34.672Z,12.40
2019-02-16T08:34:26.936Z,10.75
2019-02-16T08:37:12.695Z,10.07
2019-02-16T08:40:02.429Z,9.55
2019-02-16T08:42:50.422Z,10.38
2019-02-16T08:45:38.990Z,11.07
2019-02-16T08:48:20.082Z,10.43
2019-02-16T08:51:06.814Z,11.07
2019-02-16T08:54:05.023Z,11.32
2019-02-16T08:56:56.311Z,11.45
2019-02-16T08:59:43.800Z,12.00
2019-02-16T09:02:22.310Z,17.60
2019-02-16T09:05:21.082Z,14.77
2019-02-16T09:08:22.468Z,21.17
2019-02-16T09:11:11.837Z,19.75
2019-02-16T09:14:02.855Z,13.98
2019-02-16T09:16:44.137Z,15.48
2019-02-16T09:19:29.735Z,13.00
2019-02-16T09:22:14.933Z,12.65
2019-02-16T09:25:21.515Z,12.60
2019-02-16T09:28:02.927Z,12.90
2019-02-16T09:30:40.121Z,15.25
2019-02-16T09:33:21.125Z,13.50
2019-02-16T09:36:14.913Z,15.82
2019-02-16T09:39:04.320Z,13.65
2019-02-16T09:41:49.154Z,12.90
2019-02-16T09:44:40.128Z,12.55
2019-02-16T09:47:30.505Z,17.37
2019-02-16T09:50:19.259Z,18.30
2019-02-16T09:53:12.346Z,13.02
2019-02-16T09:55:59.406Z,15.40
2019-02-16T09:58:51.654Z,14.02
2019-02-16T10:01:44.485Z,13.25
2019-02-16T10:04:24.039Z,14.45
2019-02-16T10:07:12.583Z,14.30
2019-02-16T10:09:51.480Z,13.43
2019-02-16T10:12:35.534Z,14.23
2019-02-16T10:15:38.906Z,14.13
2019-02-16T10:18:25.609Z,14.35
2019-02-16T10:21:12.722Z,13.57
2019-02-16T10:23:57.870Z,13.02
2019-02-16T10:26:54.138Z,14.00
2019-02-16T10:29:28.501Z,16.08
2019-02-16T10:32:18.956Z,18.35
2019-02-16T10:35:03.866Z,15.45
2019-02-16T10:37:41.253Z,16.62
2019-02-16T10:40:40.155Z,15.30
2019-02-16T10:43:23.401Z,15.88
2019-02-16T10:46:13.378Z,14.43
2019-02-16T10:49:03.132Z,14.25
2019-02-16T10:51:50.031Z,16.23
2019-02-16T10:54:56.448Z,21.23
2019-02-16T10:58:00.584Z,17.30
2019-02-16T11:01:06.004Z,14.48
2019-02-16T11:03:49.345Z,17.12
2019-02-16T11:06:37.415Z,23.62
2019-02-16T11:09:24.076Z,24.10
2019-02-16T11:12:06.706Z,17.20
2019-02-16T11:14:51.464Z,16.37
2019-02-16T11:17:41.496Z,15.88
2019-02-16T11:20:26.745Z,16.15
2019-02-16T11:23:13.708Z,17.45
2019-02-16T11:26:00.555Z,16.05
2019-02-16T11:28:52.110Z,16.85
2019-02-16T11:31:30.106Z,15.75
2019-02-16T11:34:08.595Z,16.45
2019-02-16T11:36:59.510Z,16.37
2019-02-16T11:39:43.643Z,16.98
2019-02-16T11:42:32.717Z,16.80
2019-02-16T11:45:12.117Z,16.02
2019-02-16T11:48:09.147Z,16.10
2019-02-16T11:50:48.873Z,17.55
2019-02-16T11:53:39.790Z,16.23
2019-02-16T11:56:26.158Z,16.58
2019-02-16T11:59:22.957Z,18.05
2019-02-16T12:02:19.935Z,16.62
2019-02-16T12:05:02.590Z,17.05
2019-02-16T12:07:47.783Z,17.73
2019-02-16T12:10:52.054Z,18.50
2019-02-16T12:13:33.774Z,16.37
2019-02-16T12:16:14.309Z,18.73
2019-02-16T12:19:10.843Z,18.33
2019-02-16T12:21:59.574Z,20.27
2019-02-16T12:24:38.982Z,21.75
2019-02-16T12:27:26.402Z,18.95
2019-02-16T12:30:14.522Z,18.50
2019-02-16T12:33:14.698Z,17.62
2019-02-16T12:35:50.796Z,18.20
2019-02-16T12:38:36.386Z,17.55
2019-02-16T12:41:29.094Z,16.83
2019-02-16T12:44:16.529Z,18.00
2019-02-16T12:46:59.363Z,16.05
2019-02-16T12:49:54.754Z,17.12
2019-02-16T12:52:42.496Z,15.75
2019-02-16T12:55:28.859Z,16.58
2019-02-16T12:58:09.645Z,15.85
2019-02-16T13:00:59.637Z,15.13
2019-02-16T13:03:47.544Z,15.73
2019-02-16T13:06:35.831Z,14.80
2019-02-16T13:09:12.480Z,15.93
2019-02-16T13:12:08.406Z,15.68
2019-02-16T13:15:02.388Z,15.25
2019-02-16T13:17:57.056Z,15.73
2019-02-16T13:20:38.740Z,15.60
2019-02-16T13:23:12.856Z,16.98
2019-02-16T13:26:03.669Z,15.65
2019-02-16T13:28:50.892Z,25.88
2019-02-16T13:31:37.999Z,17.30
2019-02-16T13:34:40.345Z,16.92
2019-02-16T13:37:30.490Z,17.62
2019-02-16T13:40:23.334Z,17.98
2019-02-16T13:43:14.697Z,16.25
2019-02-16T13:46:01.213Z,17.25
2019-02-16T13:48:39.153Z,17.20
2019-02-16T13:51:37.753Z,16.77
2019-02-16T13:54:20.949Z,17.55
2019-02-16T13:57:10.379Z,17.75
2019-02-16T14:00:01.610Z,18.15
2019-02-16T14:02:49.413Z,18.08
2019-02-16T14:05:47.405Z,16.42
2019-02-16T14:08:50.659Z,17.37
2019-02-16T14:11:59.072Z,18.08
2019-02-16T14:14:45.797Z,15.85
2019-02-16T14:17:51.774Z,17.87
2019-02-16T14:20:21.771Z,18.60
2019-02-16T14:22:50.131Z,18.08
2019-02-16T14:25:25.023Z,18.30
2019-02-16T14:27:54.624Z,18.37
2019-02-16T14:30:24.242Z,20.00
2019-02-16T14:33:00.197Z,18.42
2019-02-16T14:35:35.169Z,19.85
2019-02-16T14:38:13.616Z,18.73
2019-02-16T14:40:41.447Z,19.20
2019-02-16T14:43:09.369Z,20.35
2019-02-16T14:45:40.112Z,19.48
2019-02-16T14:48:07.785Z,18.35
2019-02-16T14:50:38.370Z,19.48
2019-02-16T14:53:07.844Z,19.85
2019-02-16T14:55:41.160Z,20.67
2019-02-16T14:58:10.595Z,20.25
2019-02-16T15:00:43.554Z,20.88
2019-02-16T15:03:13.264Z,20.55
2019-02-16T15:05:41.453Z,19.98
2019-02-16T15:08:19.419Z,20.73
2019-02-16T15:10:53.154Z,20.80
2019-02-16T15:13:24.895Z,19.83
2019-02-16T15:15:55.634Z,21.73
2019-02-16T15:18:27.425Z,20.70
2019-02-16T15:20:58.431Z,22.83
2019-02-16T15:23:30.053Z,20.88
2019-02-16T15:26:01.380Z,23.98
2019-02-16T15:28:32.642Z,23.58
2019-02-16T15:31:02.828Z,20.98
2019-02-16T15:33:32.115Z,22.70
2019-02-16T15:36:02.927Z,33.85
2019-02-16T15:38:30.373Z,22.92
2019-02-16T15:40:58.045Z,24.05
2019-02-16T15:43:29.211Z,22.35
2019-02-16T15:45:57.180Z,25.00
2019-02-16T15:48:25.656Z,21.98
2019-02-16T15:50:58.482Z,22.87
2019-02-16T15:53:30.022Z,22.85
2019-02-16T15:56:10.080Z,21.85
2019-02-16T15:58:35.114Z,22.60
2019-02-16T16:01:06.039Z,22.92
2019-02-16T16:03:34.086Z,21.70
2019-02-16T16:06:01.641Z,21.58
2019-02-16T16:08:53.369Z,22.25
2019-02-16T16:11:36.877Z,24.37
2019-02-16T16:14:31.463Z,21.92
2019-02-16T16:17:21.414Z,21.95
2019-02-16T16:20:01.742Z,22.02
2019-02-16T16:23:01.569Z,23.90
2019-02-16T16:25:51.706Z,26.95
2019-02-16T16:28:39.122Z,24.12
2019-02-16T16:31:32.645Z,23.77
2019-02-16T16:34:21.505Z,24.10
2019-02-16T16:37:04.706Z,23.35
2019-02-16T16:39:58.119Z,24.83
2019-02-16T16:42:51.120Z,22.52
2019-02-16T16:45:56.321Z,22.20
2019-02-16T16:48:53.641Z,22.92
2019-02-16T16:51:49.221Z,31.92
2019-02-16T16:54:29.860Z,39.05
2019-02-16T16:57:34.455Z,31.85
2019-02-16T17:00:20.694Z,30.05
2019-02-16T17:03:06.653Z,34.38
2019-02-16T17:05:52.937Z,33.00
2019-02-16T17:08:34.184Z,27.80
2019-02-16T17:11:24.111Z,24.45
2019-02-16T17:14:17.383Z,23.52
2019-02-16T17:16:55.743Z,24.30
2019-02-16T17:19:34.518Z,23.60
2019-02-16T17:22:26.162Z,23.95
2019-02-16T17:25:12.226Z,41.58
2019-02-16T17:28:01.195Z,26.40
2019-02-16T17:30:38.820Z,25.80
2019-02-16T17:33:25.301Z,27.60
2019-02-16T17:36:18.409Z,28.15
2019-02-16T17:39:10.983Z,51.53
2019-02-16T17:41:59.132Z,38.20
2019-02-16T17:44:45.793Z,32.58
2019-02-16T17:47:26.595Z,38.33
2019-02-16T17:50:20.353Z,36.45
2019-02-16T17:53:07.606Z,30.02
2019-02-16T17:56:01.227Z,34.73
2019-02-16T17:58:48.197Z,22.77
2019-02-16T18:01:26.706Z,21.67
2019-02-16T18:04:13.349Z,21.92
2019-02-16T18:07:03.256Z,21.27
2019-02-16T18:10:02.240Z,21.92
2019-02-16T18:12:53.051Z,20.42
2019-02-16T18:15:49.741Z,19.60
2019-02-16T18:18:27.242Z,21.50
2019-02-16T18:21:26.546Z,25.73
2019-02-16T18:24:20.225Z,25.45
2019-02-16T18:27:01.220Z,26.55
2019-02-16T18:30:03.055Z,25.23
2019-02-16T18:32:46.274Z,25.12
2019-02-16T18:35:38.498Z,23.45
2019-02-16T18:38:25.974Z,25.55
2019-02-16T18:41:12.593Z,25.02
2019-02-16T18:44:00.574Z,22.52
2019-02-16T18:46:48.398Z,19.77
2019-02-16T18:49:40.640Z,19.67
2019-02-16T18:52:21.161Z,21.75
2019-02-16T18:55:11.410Z,21.98
2019-02-16T18:57:57.476Z,23.08
2019-02-16T19:00:50.744Z,24.20
2019-02-16T19:03:40.655Z,25.52
2019-02-16T19:06:35.438Z,25.15
2019-02-16T19:09:32.638Z,23.05
2019-02-16T19:12:08.299Z,25.02
2019-02-16T19:15:06.719Z,23.60
2019-02-16T19:17:43.945Z,24.42
2019-02-16T19:20:35.757Z,21.77
2019-02-16T19:23:32.172Z,29.67
2019-02-16T19:26:19.701Z,35.35
2019-02-16T19:29:06.562Z,34.42
2019-02-16T19:31:52.070Z,33.63
2019-02-16T19:34:37.645Z,33.45
2019-02-16T19:37:21.793Z,33.15
2019-02-16T19:40:12.314Z,30.02
2019-02-16T19:43:06.757Z,33.67
2019-02-16T19:45:54.137Z,34.13
2019-02-16T19:48:53.794Z,30.62
2019-02-16T19:51:29.934Z,32.58
2019-02-16T19:54:17.438Z,28.10
2019-02-16T19:57:05.363Z,31.35
2019-02-16T20:00:12.161Z,29.42
2019-02-16T20:03:02.177Z,30.92
2019-02-16T20:06:06.858Z,23.25
2019-02-16T20:08:57.034Z,22.60
2019-02-16T20:11:42.917Z,28.17
2019-02-16T20:14:36.221Z,27.62
2019-02-16T20:17:32.573Z,24.50
2019-02-16T20:20:23.811Z,26.08
2019-02-16T20:23:13.709Z,25.40
2019-02-16T20:26:04.399Z,25.00
2019-02-16T20:28:51.345Z,30.85
2019-02-16T20:31:36.368Z,31.35
2019-02-16T20:34:11.750Z,32.72
2019-02-16T20:36:51.647Z,31.85
2019-02-16T20:39:34.584Z,25.77
2019-02-16T20:42:19.899Z,23.67
2019-02-16T20:45:10.168Z,26.45
2019-02-16T20:47:47.083Z,27.87
2019-02-16T20:50:34.259Z,24.77
2019-02-16T20:53:20.660Z,23.25
2019-02-16T20:55:58.422Z,24.15
2019-02-16T20:58:48.205Z,29.58
2019-02-16T21:01:41.670Z,36.67
2019-02-16T21:04:37.001Z,35.15
2019-02-16T21:07:26.883Z,35.90
2019-02-16T21:10:13.872Z,29.00
2019-02-16T21:13:12.475Z,25.95
2019-02-16T21:16:00.833Z,28.58
2019-02-16T21:18:42.515Z,29.17
2019-02-16T21:21:20.229Z,30.77
2019-02-16T21:24:05.999Z,27.87
2019-02-16T21:26:42.647Z,32.03
2019-02-16T21:29:29.001Z,26.50
2019-02-16T21:32:04.835Z,22.83
2019-02-16T21:35:04.147Z,26.92
2019-02-16T21:38:03.035Z,28.55
2019-02-16T21:40:42.953Z,53.22
2019-02-16T21:43:36.611Z,33.17
2019-02-16T21:46:38.990Z,30.73
2019-02-16T21:49:29.883Z,32.72
2019-02-16T21:52:25.396Z,26.00
2019-02-16T21:55:20.455Z,26.35
2019-02-16T21:58:10.180Z,32.80
2019-02-16T22:00:50.833Z,32.15
2019-02-16T22:03:37.611Z,31.42
2019-02-16T22:06:23.623Z,29.52
2019-02-16T22:09:10.985Z,27.73
2019-02-16T22:11:46.445Z,22.52
2019-02-16T22:14:17.501Z,25.67
2019-02-16T22:16:46.099Z,22.55
2019-02-16T22:19:14.408Z,23.85
2019-02-16T22:21:43.229Z,26.25
2019-02-16T22:24:12.689Z,34.80
2019-02-16T22:26:41.104Z,36.20
2019-02-16T22:29:11.569Z,38.05
2019-02-16T22:31:40.067Z,46.20
2019-02-16T22:34:08.813Z,36.03
2019-02-16T22:36:37.865Z,36.33
2019-02-16T22:39:06.286Z,35.03
2019-02-16T22:41:36.867Z,32.67
2019-02-16T22:44:06.003Z,32.80
2019-02-16T22:46:36.807Z,32.17
2019-02-16T22:49:05.606Z,38.95
2019-02-16T22:51:34.718Z,34.78
2019-02-16T22:54:06.778Z,33.40
2019-02-16T22:56:34.911Z,32.90
2019-02-16T22:59:03.998Z,34.15
2019-02-16T23:01:31.861Z,32.13
2019-02-16T23:04:00.477Z,31.92
2019-02-16T23:06:29.795Z,32.10
2019-02-16T23:08:57.908Z,33.17
2019-02-16T23:11:26.685Z,30.98
2019-02-16T23:13:57.537Z,31.02
2019-02-16T23:16:27.452Z,30.15
2019-02-16T23:18:55.993Z,30.88
2019-02-16T23:21:24.542Z,30.58
2019-02-16T23:23:54.694Z,29.80
2019-02-16T23:26:24.318Z,30.30
2019-02-16T23:28:54.320Z,28.65
2019-02-16T23:31:23.237Z,30.40
2019-02-16T23:33:52.086Z,28.62
2019-02-16T23:36:20.873Z,29.48
2019-02-16T23:38:49.836Z,29.00
2019-02-16T23:41:17.993Z,29.40
2019-02-16T23:43:47.991Z,29.00
2019-02-16T23:46:15.806Z,27.92
2019-02-16T23:48:44.679Z,29.20
2019-02-16T23:51:13.718Z,30.65
2019-02-16T23:53:42.393Z,26.83
2019-02-16T23:56:11.121Z,27.33
2019-02-16T23:58:48.953Z,27.55
